Ana Sayfa
METAR-TAF:

METAR-TAF

Havaalanları :

Kars Harakani Havalimanı

Kars, Türkiye

Enlem: 40-36N, Boylam: 043-05E, yükseklik: 1775 m

Güncel hava durumu gözlemi

Rapor saat 04:50 UTC de 31 dakika önce yapıldı.
Rüzgar kuzey/kuzeybatıdan 3 kt
Sıcaklık -8°C
Nem 92%
Basınç 1030 hPa
Görüş mesafesi: 7000 m
700 ft yükseklikte parçalı çok bulutlu

METAR: LTCF 170450Z 34003KT 7000 BKN007 M08/M09 Q1030

Saat: 08:21 (05:21 UTC)

Tahmin

Rapor saat 01:40 UTC de 3 saat ve 41 dakika önce yapıldı.
Ayın 17'si saat 03 UTC'den ayın 17'si saat 12 UTC'ye kadar geçerli Tahmin
Rüzgar değişken yönden 2 kt
Görüş mesafesi 10 km veya daha fazla
1500 m altında bulut yok ve kümülonimbus yok

TAF: LTCF 170140Z 1703/1712 VRB02KT CAVOK

4.000'den fazla havaalanı için hava durumu gözlemleri ve tahminleri (METAR ve TAF raporları).

Kullanılabilir istasyonlar harita üzerinde sarı ve kırmızı noktalarla gösterilir.

İstasyonun adını görmek için fareyi noktanın üzerinde gezdirin.

Sonrasında hava gözlem ve tahminlerini görmek için tıklayın.

Haritayı değiştirmek için: yaklaştırmak için siyah artı işaretli yeşil düğmeye ve uzaklaştırmak için de eksi işaretli düğmeye hızla tıklayın; bitişik haritalar için yeşil okları kullanın.


METAR-TAF: